sensor_id;sensor_type;location;lat;lon;timestamp;temperature;humidity
75321;DHT22;68337;52.196;5.660;2023-05-21T00:00:18;14.80;99.90
75321;DHT22;68337;52.196;5.660;2023-05-21T00:02:45;14.80;99.90
75321;DHT22;68337;52.196;5.660;2023-05-21T00:05:11;14.70;99.90
75321;DHT22;68337;52.196;5.660;2023-05-21T00:07:39;14.80;99.90
75321;DHT22;68337;52.196;5.660;2023-05-21T00:10:06;14.80;99.90
75321;DHT22;68337;52.196;5.660;2023-05-21T00:12:32;14.70;99.90
75321;DHT22;68337;52.196;5.660;2023-05-21T00:14:58;14.70;99.90
75321;DHT22;68337;52.196;5.660;2023-05-21T00:17:26;14.70;99.90
75321;DHT22;68337;52.196;5.660;2023-05-21T00:19:51;14.60;99.90
75321;DHT22;68337;52.196;5.660;2023-05-21T00:22:17;14.60;99.90
75321;DHT22;68337;52.196;5.660;2023-05-21T00:24:43;14.60;99.90
75321;DHT22;68337;52.196;5.660;2023-05-21T00:27:12;14.60;99.90
75321;DHT22;68337;52.196;5.660;2023-05-21T00:29:38;14.50;99.90
75321;DHT22;68337;52.196;5.660;2023-05-21T00:32:04;14.50;99.90
75321;DHT22;68337;52.196;5.660;2023-05-21T00:34:29;14.50;99.90
75321;DHT22;68337;52.196;5.660;2023-05-21T00:36:55;14.50;99.90
75321;DHT22;68337;52.196;5.660;2023-05-21T00:39:22;14.50;99.90
75321;DHT22;68337;52.196;5.660;2023-05-21T00:41:48;14.50;99.90
75321;DHT22;68337;52.196;5.660;2023-05-21T00:44:14;14.50;99.90
75321;DHT22;68337;52.196;5.660;2023-05-21T00:46:43;14.40;99.90
75321;DHT22;68337;52.196;5.660;2023-05-21T00:49:10;14.50;99.90
75321;DHT22;68337;52.196;5.660;2023-05-21T00:51:36;14.40;99.90
75321;DHT22;68337;52.196;5.660;2023-05-21T00:54:02;14.40;99.90
75321;DHT22;68337;52.196;5.660;2023-05-21T00:56:28;14.40;99.90
75321;DHT22;68337;52.196;5.660;2023-05-21T00:58:54;14.40;99.90
75321;DHT22;68337;52.196;5.660;2023-05-21T01:01:22;14.40;99.90
75321;DHT22;68337;52.196;5.660;2023-05-21T01:03:51;14.40;99.90
75321;DHT22;68337;52.196;5.660;2023-05-21T01:06:18;14.30;99.90
75321;DHT22;68337;52.196;5.660;2023-05-21T01:08:45;14.40;99.90
75321;DHT22;68337;52.196;5.660;2023-05-21T01:11:11;14.40;99.90
75321;DHT22;68337;52.196;5.660;2023-05-21T01:13:38;14.30;99.90
75321;DHT22;68337;52.196;5.660;2023-05-21T01:16:06;14.30;99.90
75321;DHT22;68337;52.196;5.660;2023-05-21T01:18:34;14.30;99.90
75321;DHT22;68337;52.196;5.660;2023-05-21T01:21:02;14.30;99.90
75321;DHT22;68337;52.196;5.660;2023-05-21T01:23:28;14.30;99.90
75321;DHT22;68337;52.196;5.660;2023-05-21T01:25:53;14.30;99.90
75321;DHT22;68337;52.196;5.660;2023-05-21T01:28:19;14.40;99.90
75321;DHT22;68337;52.196;5.660;2023-05-21T01:30:45;14.30;99.90
75321;DHT22;68337;52.196;5.660;2023-05-21T01:33:18;14.30;99.90
75321;DHT22;68337;52.196;5.660;2023-05-21T01:35:58;14.40;99.90
75321;DHT22;68337;52.196;5.660;2023-05-21T01:38:36;14.40;99.90
75321;DHT22;68337;52.196;5.660;2023-05-21T01:41:10;14.40;99.90
75321;DHT22;68337;52.196;5.660;2023-05-21T01:43:38;14.30;99.90
75321;DHT22;68337;52.196;5.660;2023-05-21T01:46:04;14.30;99.90
75321;DHT22;68337;52.196;5.660;2023-05-21T01:48:33;14.30;99.90
75321;DHT22;68337;52.196;5.660;2023-05-21T01:51:02;14.30;99.90
75321;DHT22;68337;52.196;5.660;2023-05-21T01:53:29;14.40;99.90
75321;DHT22;68337;52.196;5.660;2023-05-21T01:55:55;14.30;99.90
75321;DHT22;68337;52.196;5.660;2023-05-21T01:58:20;14.30;99.90
75321;DHT22;68337;52.196;5.660;2023-05-21T02:01:02;14.30;99.90
75321;DHT22;68337;52.196;5.660;2023-05-21T02:03:30;14.30;99.90
75321;DHT22;68337;52.196;5.660;2023-05-21T02:05:56;14.20;99.90
75321;DHT22;68337;52.196;5.660;2023-05-21T02:08:21;14.20;99.90
75321;DHT22;68337;52.196;5.660;2023-05-21T02:10:48;14.10;99.90
75321;DHT22;68337;52.196;5.660;2023-05-21T02:13:14;14.20;99.90
75321;DHT22;68337;52.196;5.660;2023-05-21T02:15:40;14.20;99.90
75321;DHT22;68337;52.196;5.660;2023-05-21T02:18:06;14.30;99.90
75321;DHT22;68337;52.196;5.660;2023-05-21T02:20:32;14.20;99.90
75321;DHT22;68337;52.196;5.660;2023-05-21T02:22:58;14.20;99.90
75321;DHT22;68337;52.196;5.660;2023-05-21T02:25:24;14.20;99.90
75321;DHT22;68337;52.196;5.660;2023-05-21T02:27:49;14.20;99.90
75321;DHT22;68337;52.196;5.660;2023-05-21T02:30:18;14.10;99.90
75321;DHT22;68337;52.196;5.660;2023-05-21T02:32:44;14.10;99.90
75321;DHT22;68337;52.196;5.660;2023-05-21T02:35:11;14.00;99.90
75321;DHT22;68337;52.196;5.660;2023-05-21T02:37:38;14.00;99.90
75321;DHT22;68337;52.196;5.660;2023-05-21T02:40:08;14.00;99.90
75321;DHT22;68337;52.196;5.660;2023-05-21T02:42:36;14.00;99.90
75321;DHT22;68337;52.196;5.660;2023-05-21T02:45:07;14.00;99.90
75321;DHT22;68337;52.196;5.660;2023-05-21T02:47:32;14.00;99.90
75321;DHT22;68337;52.196;5.660;2023-05-21T02:49:59;14.00;99.90
75321;DHT22;68337;52.196;5.660;2023-05-21T02:52:25;14.00;99.90
75321;DHT22;68337;52.196;5.660;2023-05-21T02:54:51;14.00;99.90
75321;DHT22;68337;52.196;5.660;2023-05-21T02:57:17;14.00;99.90
75321;DHT22;68337;52.196;5.660;2023-05-21T02:59:43;14.10;99.90
75321;DHT22;68337;52.196;5.660;2023-05-21T03:02:09;14.00;99.90
75321;DHT22;68337;52.196;5.660;2023-05-21T03:04:35;14.00;99.90
75321;DHT22;68337;52.196;5.660;2023-05-21T03:07:13;14.00;99.90
75321;DHT22;68337;52.196;5.660;2023-05-21T03:09:40;14.00;99.90
75321;DHT22;68337;52.196;5.660;2023-05-21T03:12:06;14.00;99.90
75321;DHT22;68337;52.196;5.660;2023-05-21T03:14:32;14.00;99.90
75321;DHT22;68337;52.196;5.660;2023-05-21T03:16:58;14.00;99.90
75321;DHT22;68337;52.196;5.660;2023-05-21T03:19:23;14.00;99.90
75321;DHT22;68337;52.196;5.660;2023-05-21T03:21:49;14.00;99.90
75321;DHT22;68337;52.196;5.660;2023-05-21T03:24:15;14.00;99.90
75321;DHT22;68337;52.196;5.660;2023-05-21T03:26:41;14.10;99.90
75321;DHT22;68337;52.196;5.660;2023-05-21T03:29:06;14.10;99.90
75321;DHT22;68337;52.196;5.660;2023-05-21T03:31:32;14.00;99.90
75321;DHT22;68337;52.196;5.660;2023-05-21T03:33:57;14.00;99.90
75321;DHT22;68337;52.196;5.660;2023-05-21T03:36:23;14.00;99.90
75321;DHT22;68337;52.196;5.660;2023-05-21T03:38:49;14.00;99.90
75321;DHT22;68337;52.196;5.660;2023-05-21T03:41:14;14.00;99.90
75321;DHT22;68337;52.196;5.660;2023-05-21T03:43:40;14.00;99.90
75321;DHT22;68337;52.196;5.660;2023-05-21T03:46:06;14.00;99.90
75321;DHT22;68337;52.196;5.660;2023-05-21T03:48:31;14.00;99.90
75321;DHT22;68337;52.196;5.660;2023-05-21T03:50:57;14.00;99.90
75321;DHT22;68337;52.196;5.660;2023-05-21T03:53:23;14.00;99.90
75321;DHT22;68337;52.196;5.660;2023-05-21T03:55:49;14.00;99.90
75321;DHT22;68337;52.196;5.660;2023-05-21T03:58:23;14.00;99.90
75321;DHT22;68337;52.196;5.660;2023-05-21T04:00:49;14.00;99.90
75321;DHT22;68337;52.196;5.660;2023-05-21T04:03:15;14.00;99.90
75321;DHT22;68337;52.196;5.660;2023-05-21T04:05:41;14.10;99.90
75321;DHT22;68337;52.196;5.660;2023-05-21T04:08:07;14.00;99.90
75321;DHT22;68337;52.196;5.660;2023-05-21T04:10:33;14.10;99.90
75321;DHT22;68337;52.196;5.660;2023-05-21T04:12:59;14.10;99.90
75321;DHT22;68337;52.196;5.660;2023-05-21T04:15:24;14.10;99.90
75321;DHT22;68337;52.196;5.660;2023-05-21T04:17:52;14.10;99.90
75321;DHT22;68337;52.196;5.660;2023-05-21T04:20:19;14.10;99.90
75321;DHT22;68337;52.196;5.660;2023-05-21T04:22:44;14.10;99.90
75321;DHT22;68337;52.196;5.660;2023-05-21T04:25:10;14.10;99.90
75321;DHT22;68337;52.196;5.660;2023-05-21T04:27:36;14.10;99.90
75321;DHT22;68337;52.196;5.660;2023-05-21T04:30:03;14.10;99.90
75321;DHT22;68337;52.196;5.660;2023-05-21T04:32:29;14.10;99.90
75321;DHT22;68337;52.196;5.660;2023-05-21T04:34:56;14.10;99.90
75321;DHT22;68337;52.196;5.660;2023-05-21T04:37:22;14.20;99.90
75321;DHT22;68337;52.196;5.660;2023-05-21T04:39:49;14.20;99.90
75321;DHT22;68337;52.196;5.660;2023-05-21T04:42:14;14.20;99.90
75321;DHT22;68337;52.196;5.660;2023-05-21T04:44:40;14.20;99.90
75321;DHT22;68337;52.196;5.660;2023-05-21T04:47:08;14.20;99.90
75321;DHT22;68337;52.196;5.660;2023-05-21T04:49:34;14.20;99.90
75321;DHT22;68337;52.196;5.660;2023-05-21T04:52:01;14.10;99.90
75321;DHT22;68337;52.196;5.660;2023-05-21T04:54:27;14.10;99.90
75321;DHT22;68337;52.196;5.660;2023-05-21T04:56:53;14.10;99.90
75321;DHT22;68337;52.196;5.660;2023-05-21T04:59:19;14.10;99.90
75321;DHT22;68337;52.196;5.660;2023-05-21T05:01:45;14.10;99.90
75321;DHT22;68337;52.196;5.660;2023-05-21T05:04:11;14.10;99.90
75321;DHT22;68337;52.196;5.660;2023-05-21T05:06:36;14.10;99.90
75321;DHT22;68337;52.196;5.660;2023-05-21T05:09:02;14.20;99.90
75321;DHT22;68337;52.196;5.660;2023-05-21T05:11:29;14.20;99.90
75321;DHT22;68337;52.196;5.660;2023-05-21T05:13:54;14.20;99.90
75321;DHT22;68337;52.196;5.660;2023-05-21T05:16:20;14.30;99.90
75321;DHT22;68337;52.196;5.660;2023-05-21T05:18:52;14.30;99.90
75321;DHT22;68337;52.196;5.660;2023-05-21T05:21:20;14.40;99.90
75321;DHT22;68337;52.196;5.660;2023-05-21T05:23:46;14.40;99.90
75321;DHT22;68337;52.196;5.660;2023-05-21T05:26:11;14.30;99.90
75321;DHT22;68337;52.196;5.660;2023-05-21T05:28:37;14.40;99.90
75321;DHT22;68337;52.196;5.660;2023-05-21T05:31:03;14.40;99.90
75321;DHT22;68337;52.196;5.660;2023-05-21T05:33:28;14.50;99.90
75321;DHT22;68337;52.196;5.660;2023-05-21T05:35:54;14.60;99.90
75321;DHT22;68337;52.196;5.660;2023-05-21T05:38:20;14.60;99.90
75321;DHT22;68337;52.196;5.660;2023-05-21T05:40:45;14.60;99.90
75321;DHT22;68337;52.196;5.660;2023-05-21T05:43:11;14.60;99.90
75321;DHT22;68337;52.196;5.660;2023-05-21T05:45:36;14.70;99.90
75321;DHT22;68337;52.196;5.660;2023-05-21T05:48:02;14.70;99.90
75321;DHT22;68337;52.196;5.660;2023-05-21T05:50:28;14.70;99.90
75321;DHT22;68337;52.196;5.660;2023-05-21T05:52:54;14.70;99.90
75321;DHT22;68337;52.196;5.660;2023-05-21T05:55:19;14.90;99.90
75321;DHT22;68337;52.196;5.660;2023-05-21T05:57:46;14.90;99.90
75321;DHT22;68337;52.196;5.660;2023-05-21T06:00:12;15.00;99.90
75321;DHT22;68337;52.196;5.660;2023-05-21T06:02:38;15.00;99.90
75321;DHT22;68337;52.196;5.660;2023-05-21T06:05:04;15.10;99.90
75321;DHT22;68337;52.196;5.660;2023-05-21T06:07:31;15.20;99.90
75321;DHT22;68337;52.196;5.660;2023-05-21T06:09:57;15.30;99.90
75321;DHT22;68337;52.196;5.660;2023-05-21T06:12:23;15.30;99.90
75321;DHT22;68337;52.196;5.660;2023-05-21T06:14:49;15.30;99.90
75321;DHT22;68337;52.196;5.660;2023-05-21T06:17:15;15.30;99.90
75321;DHT22;68337;52.196;5.660;2023-05-21T06:19:41;15.30;99.90
75321;DHT22;68337;52.196;5.660;2023-05-21T06:22:06;15.30;99.90
75321;DHT22;68337;52.196;5.660;2023-05-21T06:24:32;15.40;99.90
75321;DHT22;68337;52.196;5.660;2023-05-21T06:26:58;15.60;99.90
75321;DHT22;68337;52.196;5.660;2023-05-21T06:29:23;15.80;99.90
75321;DHT22;68337;52.196;5.660;2023-05-21T06:31:49;15.80;99.90
75321;DHT22;68337;52.196;5.660;2023-05-21T06:34:15;15.90;99.90
75321;DHT22;68337;52.196;5.660;2023-05-21T06:36:40;16.10;99.90
75321;DHT22;68337;52.196;5.660;2023-05-21T06:39:06;16.10;99.90
75321;DHT22;68337;52.196;5.660;2023-05-21T06:41:32;16.20;99.90
75321;DHT22;68337;52.196;5.660;2023-05-21T06:43:58;16.30;99.90
75321;DHT22;68337;52.196;5.660;2023-05-21T06:46:23;16.30;99.90
75321;DHT22;68337;52.196;5.660;2023-05-21T06:48:49;16.40;99.90
75321;DHT22;68337;52.196;5.660;2023-05-21T06:51:14;16.50;99.90
75321;DHT22;68337;52.196;5.660;2023-05-21T06:53:40;16.70;99.90
75321;DHT22;68337;52.196;5.660;2023-05-21T06:56:06;16.70;99.90
75321;DHT22;68337;52.196;5.660;2023-05-21T06:58:32;16.60;99.90
75321;DHT22;68337;52.196;5.660;2023-05-21T07:00:58;16.50;99.90
75321;DHT22;68337;52.196;5.660;2023-05-21T07:03:23;16.50;99.90
75321;DHT22;68337;52.196;5.660;2023-05-21T07:05:49;16.40;99.90
75321;DHT22;68337;52.196;5.660;2023-05-21T07:08:15;16.60;99.90
75321;DHT22;68337;52.196;5.660;2023-05-21T07:10:41;16.50;99.90
75321;DHT22;68337;52.196;5.660;2023-05-21T07:13:06;16.60;99.90
75321;DHT22;68337;52.196;5.660;2023-05-21T07:15:32;16.70;99.90
75321;DHT22;68337;52.196;5.660;2023-05-21T07:17:58;16.90;99.90
75321;DHT22;68337;52.196;5.660;2023-05-21T07:20:24;17.00;99.90
75321;DHT22;68337;52.196;5.660;2023-05-21T07:22:49;16.90;99.90
75321;DHT22;68337;52.196;5.660;2023-05-21T07:25:15;17.00;99.90
75321;DHT22;68337;52.196;5.660;2023-05-21T07:27:41;17.10;99.90
75321;DHT22;68337;52.196;5.660;2023-05-21T07:30:08;17.20;99.90
75321;DHT22;68337;52.196;5.660;2023-05-21T07:32:34;17.20;99.90
75321;DHT22;68337;52.196;5.660;2023-05-21T07:34:59;17.40;99.90
75321;DHT22;68337;52.196;5.660;2023-05-21T07:37:28;17.70;99.90
75321;DHT22;68337;52.196;5.660;2023-05-21T07:39:56;18.00;99.90
75321;DHT22;68337;52.196;5.660;2023-05-21T07:42:23;18.10;99.90
75321;DHT22;68337;52.196;5.660;2023-05-21T07:44:48;18.00;99.90
75321;DHT22;68337;52.196;5.660;2023-05-21T07:47:14;18.20;99.90
75321;DHT22;68337;52.196;5.660;2023-05-21T07:49:40;18.30;99.90
75321;DHT22;68337;52.196;5.660;2023-05-21T07:52:05;18.60;99.90
75321;DHT22;68337;52.196;5.660;2023-05-21T07:54:31;18.50;99.90
75321;DHT22;68337;52.196;5.660;2023-05-21T07:56:57;18.60;99.90
75321;DHT22;68337;52.196;5.660;2023-05-21T07:59:23;18.60;99.90
75321;DHT22;68337;52.196;5.660;2023-05-21T08:01:49;18.90;99.90
75321;DHT22;68337;52.196;5.660;2023-05-21T08:04:15;18.80;99.90
75321;DHT22;68337;52.196;5.660;2023-05-21T08:06:40;18.50;99.90
75321;DHT22;68337;52.196;5.660;2023-05-21T08:09:06;18.70;99.90
75321;DHT22;68337;52.196;5.660;2023-05-21T08:11:32;18.70;99.90
75321;DHT22;68337;52.196;5.660;2023-05-21T08:13:58;18.60;99.90
75321;DHT22;68337;52.196;5.660;2023-05-21T08:16:24;18.60;99.90
75321;DHT22;68337;52.196;5.660;2023-05-21T08:18:50;18.70;99.90
75321;DHT22;68337;52.196;5.660;2023-05-21T08:21:16;18.70;99.90
75321;DHT22;68337;52.196;5.660;2023-05-21T08:23:42;18.90;99.90
75321;DHT22;68337;52.196;5.660;2023-05-21T08:26:08;19.00;99.90
75321;DHT22;68337;52.196;5.660;2023-05-21T08:28:37;19.10;99.90
75321;DHT22;68337;52.196;5.660;2023-05-21T08:31:03;19.00;99.90
75321;DHT22;68337;52.196;5.660;2023-05-21T08:33:28;19.00;99.90
75321;DHT22;68337;52.196;5.660;2023-05-21T08:35:54;19.40;99.90
75321;DHT22;68337;52.196;5.660;2023-05-21T08:38:20;19.60;99.90
75321;DHT22;68337;52.196;5.660;2023-05-21T08:40:45;19.80;99.90
75321;DHT22;68337;52.196;5.660;2023-05-21T08:43:15;20.00;99.90
75321;DHT22;68337;52.196;5.660;2023-05-21T08:45:43;20.10;99.90
75321;DHT22;68337;52.196;5.660;2023-05-21T08:48:10;20.50;99.90
75321;DHT22;68337;52.196;5.660;2023-05-21T08:50:38;20.70;99.90
75321;DHT22;68337;52.196;5.660;2023-05-21T08:53:05;20.20;99.90
75321;DHT22;68337;52.196;5.660;2023-05-21T08:55:31;20.70;99.90
75321;DHT22;68337;52.196;5.660;2023-05-21T08:57:57;20.60;99.90
75321;DHT22;68337;52.196;5.660;2023-05-21T09:00:23;20.60;99.90
75321;DHT22;68337;52.196;5.660;2023-05-21T09:02:50;20.60;99.90
75321;DHT22;68337;52.196;5.660;2023-05-21T09:05:18;20.90;99.90
75321;DHT22;68337;52.196;5.660;2023-05-21T09:07:58;21.20;99.90
75321;DHT22;68337;52.196;5.660;2023-05-21T09:10:37;21.10;99.90
75321;DHT22;68337;52.196;5.660;2023-05-21T09:13:03;21.30;99.90
75321;DHT22;68337;52.196;5.660;2023-05-21T09:15:29;21.50;99.90
75321;DHT22;68337;52.196;5.660;2023-05-21T09:17:56;21.40;99.90
75321;DHT22;68337;52.196;5.660;2023-05-21T09:20:26;21.90;99.90
75321;DHT22;68337;52.196;5.660;2023-05-21T09:22:52;22.50;99.90
75321;DHT22;68337;52.196;5.660;2023-05-21T09:25:20;22.60;99.90
75321;DHT22;68337;52.196;5.660;2023-05-21T09:27:46;22.30;99.90
75321;DHT22;68337;52.196;5.660;2023-05-21T09:30:13;22.00;99.90
75321;DHT22;68337;52.196;5.660;2023-05-21T09:32:40;22.00;99.90
75321;DHT22;68337;52.196;5.660;2023-05-21T09:35:07;22.20;99.90
75321;DHT22;68337;52.196;5.660;2023-05-21T09:37:41;22.30;99.90
75321;DHT22;68337;52.196;5.660;2023-05-21T09:40:17;22.80;99.90
75321;DHT22;68337;52.196;5.660;2023-05-21T09:42:51;22.70;99.90
75321;DHT22;68337;52.196;5.660;2023-05-21T09:45:18;22.80;99.90
75321;DHT22;68337;52.196;5.660;2023-05-21T09:47:45;22.80;99.90
75321;DHT22;68337;52.196;5.660;2023-05-21T09:50:22;23.00;99.90
75321;DHT22;68337;52.196;5.660;2023-05-21T09:52:48;23.50;99.90
75321;DHT22;68337;52.196;5.660;2023-05-21T09:55:15;24.00;99.90
75321;DHT22;68337;52.196;5.660;2023-05-21T09:57:45;24.10;99.90
75321;DHT22;68337;52.196;5.660;2023-05-21T10:00:18;23.90;99.90
75321;DHT22;68337;52.196;5.660;2023-05-21T10:02:48;24.10;99.90
75321;DHT22;68337;52.196;5.660;2023-05-21T10:05:15;24.10;99.90
75321;DHT22;68337;52.196;5.660;2023-05-21T10:07:45;24.30;99.90
75321;DHT22;68337;52.196;5.660;2023-05-21T10:10:13;24.50;99.90
75321;DHT22;68337;52.196;5.660;2023-05-21T10:12:42;24.50;99.90
75321;DHT22;68337;52.196;5.660;2023-05-21T10:15:15;24.60;99.90
75321;DHT22;68337;52.196;5.660;2023-05-21T10:17:42;24.50;99.90
75321;DHT22;68337;52.196;5.660;2023-05-21T10:20:11;24.30;99.90
75321;DHT22;68337;52.196;5.660;2023-05-21T10:22:37;24.90;99.90
75321;DHT22;68337;52.196;5.660;2023-05-21T10:25:05;25.40;99.90
75321;DHT22;68337;52.196;5.660;2023-05-21T10:27:31;24.90;99.90
75321;DHT22;68337;52.196;5.660;2023-05-21T10:29:58;24.70;99.90
75321;DHT22;68337;52.196;5.660;2023-05-21T10:32:26;24.40;99.90
75321;DHT22;68337;52.196;5.660;2023-05-21T10:34:56;24.70;99.90
75321;DHT22;68337;52.196;5.660;2023-05-21T10:37:26;25.10;99.90
75321;DHT22;68337;52.196;5.660;2023-05-21T10:39:55;25.70;99.90
75321;DHT22;68337;52.196;5.660;2023-05-21T10:45:35;25.70;98.50
75321;DHT22;68337;52.196;5.660;2023-05-21T10:56:31;25.30;99.50
75321;DHT22;68337;52.196;5.660;2023-05-21T10:59:14;25.70;97.90
75321;DHT22;68337;52.196;5.660;2023-05-21T11:01:50;26.30;97.30
75321;DHT22;68337;52.196;5.660;2023-05-21T11:04:25;26.00;95.30
75321;DHT22;68337;52.196;5.660;2023-05-21T11:06:51;25.70;97.40
75321;DHT22;68337;52.196;5.660;2023-05-21T11:09:17;25.70;96.80
75321;DHT22;68337;52.196;5.660;2023-05-21T11:11:55;25.70;96.80
75321;DHT22;68337;52.196;5.660;2023-05-21T11:14:32;25.80;96.80
75321;DHT22;68337;52.196;5.660;2023-05-21T11:19:44;25.80;96.60
75321;DHT22;68337;52.196;5.660;2023-05-21T11:22:24;26.60;93.70
75321;DHT22;68337;52.196;5.660;2023-05-21T11:24:51;26.80;93.80
75321;DHT22;68337;52.196;5.660;2023-05-21T11:27:36;26.40;94.00
75321;DHT22;68337;52.196;5.660;2023-05-21T11:30:07;26.30;93.10
75321;DHT22;68337;52.196;5.660;2023-05-21T11:32:37;26.60;93.20
75321;DHT22;68337;52.196;5.660;2023-05-21T11:35:04;26.40;94.50
75321;DHT22;68337;52.196;5.660;2023-05-21T11:37:31;26.70;93.60
75321;DHT22;68337;52.196;5.660;2023-05-21T11:42:48;26.80;91.60
75321;DHT22;68337;52.196;5.660;2023-05-21T11:45:16;27.20;91.70
75321;DHT22;68337;52.196;5.660;2023-05-21T11:47:43;27.40;89.30
75321;DHT22;68337;52.196;5.660;2023-05-21T11:50:12;27.60;90.00
75321;DHT22;68337;52.196;5.660;2023-05-21T11:52:39;27.30;86.60
75321;DHT22;68337;52.196;5.660;2023-05-21T11:55:05;26.90;88.90
75321;DHT22;68337;52.196;5.660;2023-05-21T11:57:31;26.50;90.10
75321;DHT22;68337;52.196;5.660;2023-05-21T11:59:58;26.60;91.50
75321;DHT22;68337;52.196;5.660;2023-05-21T12:02:29;26.70;91.10
75321;DHT22;68337;52.196;5.660;2023-05-21T12:04:55;26.90;89.60
75321;DHT22;68337;52.196;5.660;2023-05-21T12:07:25;27.00;90.10
75321;DHT22;68337;52.196;5.660;2023-05-21T12:09:53;26.90;91.00
75321;DHT22;68337;52.196;5.660;2023-05-21T12:12:20;27.40;89.30
75321;DHT22;68337;52.196;5.660;2023-05-21T12:14:48;26.90;89.50
75321;DHT22;68337;52.196;5.660;2023-05-21T12:17:18;27.00;90.60
75321;DHT22;68337;52.196;5.660;2023-05-21T12:19:45;27.10;88.00
75321;DHT22;68337;52.196;5.660;2023-05-21T12:22:11;26.70;89.20
75321;DHT22;68337;52.196;5.660;2023-05-21T12:24:38;26.40;89.90
75321;DHT22;68337;52.196;5.660;2023-05-21T12:27:06;26.20;91.20
75321;DHT22;68337;52.196;5.660;2023-05-21T12:29:42;26.20;90.50
75321;DHT22;68337;52.196;5.660;2023-05-21T12:32:09;25.90;92.10
75321;DHT22;68337;52.196;5.660;2023-05-21T12:34:40;26.00;92.80
75321;DHT22;68337;52.196;5.660;2023-05-21T12:37:07;26.50;91.90
75321;DHT22;68337;52.196;5.660;2023-05-21T12:39:43;27.00;91.10
75321;DHT22;68337;52.196;5.660;2023-05-21T12:42:10;27.20;90.20
75321;DHT22;68337;52.196;5.660;2023-05-21T12:44:38;27.00;90.20
75321;DHT22;68337;52.196;5.660;2023-05-21T12:47:05;27.20;90.20
75321;DHT22;68337;52.196;5.660;2023-05-21T12:49:50;27.30;90.00
75321;DHT22;68337;52.196;5.660;2023-05-21T12:52:19;26.90;88.90
75321;DHT22;68337;52.196;5.660;2023-05-21T12:54:55;26.70;90.40
75321;DHT22;68337;52.196;5.660;2023-05-21T12:57:26;26.70;90.10
75321;DHT22;68337;52.196;5.660;2023-05-21T12:59:57;26.60;90.80
75321;DHT22;68337;52.196;5.660;2023-05-21T13:02:27;26.50;91.10
75321;DHT22;68337;52.196;5.660;2023-05-21T13:05:01;26.40;90.50
75321;DHT22;68337;52.196;5.660;2023-05-21T13:07:29;26.50;91.60
75321;DHT22;68337;52.196;5.660;2023-05-21T13:09:55;27.00;91.30
75321;DHT22;68337;52.196;5.660;2023-05-21T13:12:23;27.10;89.30
75321;DHT22;68337;52.196;5.660;2023-05-21T13:14:50;26.70;91.00
75321;DHT22;68337;52.196;5.660;2023-05-21T13:17:17;26.70;90.20
75321;DHT22;68337;52.196;5.660;2023-05-21T13:22:34;26.20;92.50
75321;DHT22;68337;52.196;5.660;2023-05-21T13:25:01;26.30;93.50
75321;DHT22;68337;52.196;5.660;2023-05-21T13:27:27;26.30;93.40
75321;DHT22;68337;52.196;5.660;2023-05-21T13:29:53;26.50;93.00
75321;DHT22;68337;52.196;5.660;2023-05-21T13:32:19;26.90;91.80
75321;DHT22;68337;52.196;5.660;2023-05-21T13:34:44;27.40;90.10
75321;DHT22;68337;52.196;5.660;2023-05-21T13:37:10;27.20;88.80
75321;DHT22;68337;52.196;5.660;2023-05-21T13:39:36;27.10;87.30
75321;DHT22;68337;52.196;5.660;2023-05-21T13:42:02;26.90;90.90
75321;DHT22;68337;52.196;5.660;2023-05-21T13:44:33;27.30;90.50
75321;DHT22;68337;52.196;5.660;2023-05-21T13:47:03;27.00;90.90
75321;DHT22;68337;52.196;5.660;2023-05-21T13:49:28;27.20;90.80
75321;DHT22;68337;52.196;5.660;2023-05-21T13:51:54;27.60;88.70
75321;DHT22;68337;52.196;5.660;2023-05-21T13:54:20;27.50;88.40
75321;DHT22;68337;52.196;5.660;2023-05-21T13:56:46;27.50;88.30
75321;DHT22;68337;52.196;5.660;2023-05-21T13:59:11;26.70;89.10
75321;DHT22;68337;52.196;5.660;2023-05-21T14:01:37;26.40;91.00
75321;DHT22;68337;52.196;5.660;2023-05-21T14:04:03;26.00;92.00
75321;DHT22;68337;52.196;5.660;2023-05-21T14:06:31;26.40;92.90
75321;DHT22;68337;52.196;5.660;2023-05-21T14:08:58;26.50;92.20
75321;DHT22;68337;52.196;5.660;2023-05-21T14:11:23;26.60;92.50
75321;DHT22;68337;52.196;5.660;2023-05-21T14:13:50;27.20;91.70
75321;DHT22;68337;52.196;5.660;2023-05-21T14:16:15;27.40;90.70
75321;DHT22;68337;52.196;5.660;2023-05-21T14:18:42;27.30;90.10
75321;DHT22;68337;52.196;5.660;2023-05-21T14:21:08;27.30;88.60
75321;DHT22;68337;52.196;5.660;2023-05-21T14:23:33;27.20;90.30
75321;DHT22;68337;52.196;5.660;2023-05-21T14:25:59;27.20;90.80
75321;DHT22;68337;52.196;5.660;2023-05-21T14:28:25;27.50;90.00
75321;DHT22;68337;52.196;5.660;2023-05-21T14:30:51;27.20;89.50
75321;DHT22;68337;52.196;5.660;2023-05-21T14:33:17;27.00;90.10
75321;DHT22;68337;52.196;5.660;2023-05-21T14:35:43;27.10;91.20
75321;DHT22;68337;52.196;5.660;2023-05-21T14:38:09;27.40;90.60
75321;DHT22;68337;52.196;5.660;2023-05-21T14:40:35;27.40;90.30
75321;DHT22;68337;52.196;5.660;2023-05-21T14:43:01;27.50;90.10
75321;DHT22;68337;52.196;5.660;2023-05-21T14:45:27;27.70;89.60
75321;DHT22;68337;52.196;5.660;2023-05-21T14:47:53;27.30;89.40
75321;DHT22;68337;52.196;5.660;2023-05-21T14:50:19;26.80;91.10
75321;DHT22;68337;52.196;5.660;2023-05-21T14:52:45;27.10;91.40
75321;DHT22;68337;52.196;5.660;2023-05-21T14:55:10;27.20;90.70
75321;DHT22;68337;52.196;5.660;2023-05-21T14:57:37;27.20;90.30
75321;DHT22;68337;52.196;5.660;2023-05-21T15:00:04;26.80;90.20
75321;DHT22;68337;52.196;5.660;2023-05-21T15:02:30;27.10;91.60
75321;DHT22;68337;52.196;5.660;2023-05-21T15:04:55;27.10;90.90
75321;DHT22;68337;52.196;5.660;2023-05-21T15:07:21;27.00;90.70
75321;DHT22;68337;52.196;5.660;2023-05-21T15:09:47;27.30;90.60
75321;DHT22;68337;52.196;5.660;2023-05-21T15:12:12;27.50;90.20
75321;DHT22;68337;52.196;5.660;2023-05-21T15:14:39;27.30;90.10
75321;DHT22;68337;52.196;5.660;2023-05-21T15:17:05;27.10;90.00
75321;DHT22;68337;52.196;5.660;2023-05-21T15:19:31;26.80;90.60
75321;DHT22;68337;52.196;5.660;2023-05-21T15:21:56;26.70;91.60
75321;DHT22;68337;52.196;5.660;2023-05-21T15:24:22;26.80;92.10
75321;DHT22;68337;52.196;5.660;2023-05-21T15:26:47;26.90;91.50
75321;DHT22;68337;52.196;5.660;2023-05-21T15:29:14;27.00;91.80
75321;DHT22;68337;52.196;5.660;2023-05-21T15:31:40;26.70;91.20
75321;DHT22;68337;52.196;5.660;2023-05-21T15:34:05;26.50;92.20
75321;DHT22;68337;52.196;5.660;2023-05-21T15:36:31;26.40;92.70
75321;DHT22;68337;52.196;5.660;2023-05-21T15:38:56;26.30;93.10
75321;DHT22;68337;52.196;5.660;2023-05-21T15:41:22;26.60;93.20
75321;DHT22;68337;52.196;5.660;2023-05-21T15:43:48;26.70;92.50
75321;DHT22;68337;52.196;5.660;2023-05-21T15:46:13;26.70;92.90
75321;DHT22;68337;52.196;5.660;2023-05-21T15:48:39;26.60;93.60